Time;durP1;ratioP1;P1;durP2;ratioP2;P2;SDS_P1;SDS_P2;PMS_P1;PMS_P2;Temp;Humidity;BMP_temperature;BMP_pressure;BME280_temperature;BME280_humidity;BME280_pressure;Samples;Min_cycle;Max_cycle;Signal;HPM_P1;HPM_P2
2022/10/20 00:02:35;;;;;;;20.27;11.23;;;;;10.90;100987.00;;;;10475491;28;20577;-74
2022/10/20 00:07:37;;;;;;;20.03;11.87;;;;;10.90;100984.00;;;;10449549;28;20885;-74
2022/10/20 00:12:38;;;;;;;15.87;11.37;;;;;10.90;100986.00;;;;10465449;28;20707;-74
2022/10/20 00:17:40;;;;;;;23.40;12.97;;;;;10.80;100961.00;;;;10442186;28;20214;-74
2022/10/20 00:22:41;;;;;;;17.23;11.63;;;;;10.80;100956.00;;;;10446162;28;20193;-74
2022/10/20 00:27:42;;;;;;;18.13;12.77;;;;;10.80;100938.00;;;;10494851;28;20227;-74
2022/10/20 00:32:46;;;;;;;21.40;12.97;;;;;10.70;100948.00;;;;10466186;28;20718;-74
2022/10/20 00:37:47;;;;;;;23.10;12.60;;;;;10.70;100934.00;;;;10456328;28;20205;-74
2022/10/20 00:42:49;;;;;;;22.73;13.13;;;;;10.70;100919.00;;;;10473401;28;20533;-74
2022/10/20 00:47:55;;;;;;;22.60;12.47;;;;;10.70;100929.00;;;;10466298;28;20201;-74
2022/10/20 00:52:58;;;;;;;22.43;13.77;;;;;10.70;100924.00;;;;10491000;28;20688;-74
2022/10/20 00:58:01;;;;;;;19.63;13.43;;;;;10.70;100909.00;;;;10481215;28;20575;-74
2022/10/20 01:03:22;;;;;;;19.00;12.25;;;;;10.70;100910.00;;;;11377984;22;20221;31
2022/10/20 01:08:24;;;;;;;19.63;12.53;;;;;10.60;100892.00;;;;10286272;28;20215;-76
2022/10/20 01:13:52;;;;;;;25.37;12.80;;;;;10.60;100885.00;;;;10294423;28;20267;-76
2022/10/20 01:19:02;;;;;;;26.83;14.43;;;;;10.60;100869.00;;;;10297015;28;20196;-76
2022/10/20 01:24:43;;;;;;;21.80;13.20;;;;;10.60;100868.00;;;;10244789;28;20718;-76
2022/10/20 01:29:58;;;;;;;19.93;13.77;;;;;10.60;100865.00;;;;10306445;28;20200;-76
2022/10/20 01:35:17;;;;;;;21.77;14.03;;;;;10.60;100863.00;;;;10303730;28;20581;-76
2022/10/20 01:40:32;;;;;;;22.40;14.33;;;;;10.60;100846.00;;;;10301562;28;20282;-76
2022/10/20 01:45:37;;;;;;;22.50;14.07;;;;;10.60;100853.00;;;;10281885;28;20606;-76
2022/10/20 01:50:40;;;;;;;20.97;14.20;;;;;10.60;100835.00;;;;10281046;28;20207;-76
2022/10/20 01:55:42;;;;;;;21.03;12.87;;;;;10.60;100823.00;;;;10272604;28;20648;-76
2022/10/20 02:00:44;;;;;;;19.47;13.23;;;;;10.60;100810.00;;;;10285542;28;20207;-76
2022/10/20 02:05:53;;;;;;;20.27;14.00;;;;;10.60;100797.00;;;;10297500;28;20219;-76
2022/10/20 02:10:59;;;;;;;21.63;13.93;;;;;10.70;100797.00;;;;10341933;28;20258;-76
2022/10/20 02:16:06;;;;;;;22.47;14.10;;;;;10.70;100774.00;;;;10320460;28;20823;-76
2022/10/20 02:21:07;;;;;;;28.27;14.70;;;;;10.70;100769.00;;;;10342457;28;20207;-76
2022/10/20 02:26:13;;;;;;;23.83;14.50;;;;;10.80;100763.00;;;;10305716;28;20203;-76
2022/10/20 02:31:16;;;;;;;22.53;14.37;;;;;10.80;100781.00;;;;10315694;28;20203;-76
2022/10/20 02:36:20;;;;;;;19.03;12.97;;;;;10.70;100773.00;;;;10284428;28;20281;-77
2022/10/20 02:41:21;;;;;;;22.50;14.47;;;;;10.70;100761.00;;;;10344227;28;20211;-76
2022/10/20 02:46:23;;;;;;;23.50;13.43;;;;;10.70;100758.00;;;;10303474;28;20243;-77
2022/10/20 02:51:24;;;;;;;24.70;14.03;;;;;10.60;100751.00;;;;10312183;28;20196;-76
2022/10/20 02:56:25;;;;;;;22.00;13.43;;;;;10.60;100738.00;;;;10309317;28;20238;-77
2022/10/20 03:01:31;;;;;;;22.53;14.10;;;;;10.60;100737.00;;;;10331940;28;20252;-77
2022/10/20 03:06:32;;;;;;;22.27;13.90;;;;;10.60;100718.00;;;;10327880;28;20311;-77
2022/10/20 03:11:33;;;;;;;21.83;13.97;;;;;10.60;100711.00;;;;10339589;28;20210;-77
2022/10/20 03:16:34;;;;;;;21.47;14.10;;;;;10.60;100709.00;;;;10331259;28;20269;-77
2022/10/20 03:21:36;;;;;;;25.90;15.77;;;;;10.60;100714.00;;;;10289126;28;20196;-77
2022/10/20 03:26:37;;;;;;;21.20;14.10;;;;;10.60;100702.00;;;;10332092;28;20562;-77
2022/10/20 03:31:38;;;;;;;23.13;14.10;;;;;10.50;100684.00;;;;10319110;28;20275;-77
2022/10/20 03:36:39;;;;;;;26.47;13.97;;;;;10.50;100680.00;;;;10317520;28;20216;-77
2022/10/20 03:41:40;;;;;;;20.67;13.13;;;;;10.50;100730.00;;;;10303746;28;20222;-77
2022/10/20 03:46:42;;;;;;;20.63;13.97;;;;;10.40;100721.00;;;;10304132;28;20261;-77
2022/10/20 03:51:43;;;;;;;18.17;13.73;;;;;10.40;100728.00;;;;10339513;28;21100;-76
2022/10/20 03:56:44;;;;;;;23.90;13.43;;;;;10.30;100750.00;;;;10292006;28;20577;-76
2022/10/20 04:01:46;;;;;;;21.80;12.87;;;;;10.20;100733.00;;;;10327802;28;20194;-76
2022/10/20 04:06:47;;;;;;;26.20;13.43;;;;;10.20;100717.00;;;;10317040;28;20231;-76
2022/10/20 04:11:48;;;;;;;21.23;13.50;;;;;10.10;100708.00;;;;10320545;28;20203;-76
2022/10/20 04:16:49;;;;;;;23.53;12.90;;;;;10.10;100699.00;;;;10326077;28;20729;-77
2022/10/20 04:21:50;;;;;;;19.63;13.27;;;;;10.00;100673.00;;;;10326169;28;20200;-77
2022/10/20 04:26:52;;;;;;;25.23;14.47;;;;;10.00;100666.00;;;;10327963;28;20199;-76
2022/10/20 04:31:53;;;;;;;28.20;15.23;;;;;10.20;100669.00;;;;10324713;28;20214;-76
2022/10/20 04:36:54;;;;;;;23.37;14.13;;;;;10.30;100659.00;;;;10329046;28;20219;-76
2022/10/20 04:41:55;;;;;;;24.17;14.33;;;;;10.40;100648.00;;;;10337078;28;20194;-77
2022/10/20 04:46:56;;;;;;;22.43;13.50;;;;;10.50;100656.00;;;;10286273;28;20204;-77
2022/10/20 04:51:57;;;;;;;27.07;14.83;;;;;10.70;100659.00;;;;10290079;28;20648;-76
2022/10/20 04:57:03;;;;;;;23.30;14.97;;;;;10.70;100668.00;;;;10344463;28;20215;-76
2022/10/20 05:02:04;;;;;;;24.23;14.07;;;;;10.80;100647.00;;;;10323117;28;20869;-76
2022/10/20 05:07:05;;;;;;;21.77;13.93;;;;;10.80;100652.00;;;;10356841;28;20867;-76
2022/10/20 05:12:07;;;;;;;28.70;14.67;;;;;10.80;100640.00;;;;10349236;28;20818;-76
2022/10/20 05:17:08;;;;;;;22.77;14.53;;;;;10.80;100646.00;;;;10340597;28;20226;-77
2022/10/20 05:22:11;;;;;;;21.73;13.77;;;;;10.80;100646.00;;;;10345179;28;20195;-76
2022/10/20 05:27:12;;;;;;;25.33;15.47;;;;;10.90;100653.00;;;;10286946;28;20818;-76
2022/10/20 05:32:13;;;;;;;22.07;13.63;;;;;10.90;100659.00;;;;10299437;28;20223;-76
2022/10/20 05:37:14;;;;;;;22.57;14.27;;;;;11.00;100636.00;;;;10349732;28;20227;-77
2022/10/20 05:42:16;;;;;;;23.10;14.83;;;;;11.00;100625.00;;;;10319593;28;20254;-77
2022/10/20 05:47:17;;;;;;;22.77;13.40;;;;;11.00;100628.00;;;;10296100;28;20204;-76
2022/10/20 05:52:18;;;;;;;22.40;14.07;;;;;11.00;100623.00;;;;10362914;28;20219;-76
2022/10/20 05:57:19;;;;;;;23.33;14.77;;;;;11.00;100608.00;;;;10355628;28;20887;-76
2022/10/20 06:02:21;;;;;;;31.70;15.10;;;;;11.00;100590.00;;;;10348071;28;20204;-76
2022/10/20 06:07:22;;;;;;;25.30;14.53;;;;;11.00;100598.00;;;;10331124;28;20216;-76
2022/10/20 06:12:23;;;;;;;22.73;14.63;;;;;11.00;100580.00;;;;10315243;28;20737;-77
2022/10/20 06:17:24;;;;;;;26.87;15.43;;;;;11.10;100580.00;;;;10322707;28;20234;-76
2022/10/20 06:22:26;;;;;;;28.30;15.10;;;;;11.20;100597.00;;;;10327372;28;20199;-76
2022/10/20 06:27:27;;;;;;;21.47;13.80;;;;;11.30;100598.00;;;;10333432;28;20867;-76
2022/10/20 06:32:28;;;;;;;26.83;14.20;;;;;11.40;100621.00;;;;10293804;28;20212;-76
2022/10/20 06:37:29;;;;;;;21.40;13.60;;;;;11.50;100620.00;;;;10310995;28;20251;-76
2022/10/20 06:42:30;;;;;;;23.20;13.87;;;;;11.60;100611.00;;;;10347257;28;20903;-76
2022/10/20 06:47:32;;;;;;;21.87;13.40;;;;;11.80;100606.00;;;;10306100;28;20207;-76
2022/10/20 06:52:33;;;;;;;23.47;14.90;;;;;11.90;100597.00;;;;10329789;28;21506;-76
2022/10/20 06:57:34;;;;;;;20.33;12.27;;;;;12.00;100603.00;;;;10315848;28;20227;-77
2022/10/20 07:02:38;;;;;;;21.67;12.47;;;;;12.10;100606.00;;;;10351481;28;20203;-76
2022/10/20 07:07:40;;;;;;;22.47;13.30;;;;;12.20;100621.00;;;;10327377;28;20633;-76
2022/10/20 07:12:41;;;;;;;18.87;12.50;;;;;12.30;100607.00;;;;10330178;28;20206;-76
2022/10/20 07:17:42;;;;;;;18.83;11.63;;;;;12.40;100624.00;;;;10296122;28;20226;-76
2022/10/20 07:22:44;;;;;;;20.67;13.27;;;;;12.50;100617.00;;;;10346696;28;20201;-76
2022/10/20 07:27:45;;;;;;;23.13;15.50;;;;;12.70;100630.00;;;;10309529;28;20219;-76
2022/10/20 07:32:46;;;;;;;21.43;14.17;;;;;12.90;100633.00;;;;10313143;28;20196;-76
2022/10/20 07:37:49;;;;;;;18.47;12.77;;;;;13.20;100638.00;;;;10308309;28;20229;-77
2022/10/20 07:42:50;;;;;;;18.83;12.03;;;;;13.50;100644.00;;;;10336198;28;20222;-77
2022/10/20 07:47:51;;;;;;;16.50;11.32;;;;;13.70;100637.00;;;;10310467;28;20212;-76
2022/10/20 07:52:52;;;;;;;16.27;11.52;;;;;14.00;100647.00;;;;10331895;28;20214;-77
2022/10/20 07:57:53;;;;;;;15.30;11.60;;;;;14.10;100618.00;;;;10322857;28;20337;-76
2022/10/20 08:02:55;;;;;;;15.68;11.20;;;;;14.30;100630.00;;;;10344532;28;20199;-77
2022/10/20 08:07:56;;;;;;;13.55;9.65;;;;;14.90;100634.00;;;;10306250;28;20838;-77
2022/10/20 08:12:59;;;;;;;21.15;11.27;;;;;15.30;100633.00;;;;10343493;28;20205;-77
2022/10/20 08:18:00;;;;;;;17.02;10.02;;;;;15.50;100626.00;;;;10336111;28;20229;-77
2022/10/20 08:23:01;;;;;;;15.35;10.15;;;;;15.40;100628.00;;;;10300329;28;20601;-77
2022/10/20 08:28:21;;;;;;;14.98;9.52;;;;;15.20;100635.00;;;;10349025;28;20215;-76
2022/10/20 08:33:27;;;;;;;16.42;9.35;;;;;15.10;100637.00;;;;10311717;28;20283;-76
2022/10/20 08:39:05;;;;;;;11.90;8.88;;;;;15.00;100641.00;;;;10325790;28;20207;-76
2022/10/20 08:44:11;;;;;;;17.20;9.43;;;;;14.80;100628.00;;;;10322408;28;20247;-75
2022/10/20 08:49:21;;;;;;;15.07;9.13;;;;;14.70;100621.00;;;;10322255;28;20689;-75
2022/10/20 08:54:22;;;;;;;18.77;10.00;;;;;14.70;100593.00;;;;10339358;28;20222;-75
2022/10/20 08:59:32;;;;;;;16.13;9.27;;;;;14.60;100600.00;;;;10325155;28;20290;-75
2022/10/20 09:04:46;;;;;;;18.02;8.75;;;;;14.60;100607.00;;;;10284731;28;20269;-76
2022/10/20 09:09:47;;;;;;;21.02;9.73;;;;;14.60;100588.00;;;;10330809;28;20719;-75
2022/10/20 09:14:48;;;;;;;20.00;9.65;;;;;14.60;100590.00;;;;10328522;28;20223;-75
2022/10/20 09:19:56;;;;;;;14.77;9.55;;;;;14.60;100588.00;;;;10310184;28;20722;-76
2022/10/20 09:25:22;;;;;;;14.93;9.65;;;;;14.60;100576.00;;;;10350003;28;20223;-75
2022/10/20 09:30:34;;;;;;;14.48;9.80;;;;;14.60;100573.00;;;;10333370;28;20266;-75
2022/10/20 09:35:35;;;;;;;15.75;10.40;;;;;14.60;100568.00;;;;10331836;28;20224;-75
2022/10/20 09:41:16;;;;;;;15.82;9.98;;;;;14.60;100565.00;;;;10297705;28;20707;-75
2022/10/20 09:46:22;;;;;;;14.45;10.55;;;;;14.70;100552.00;;;;10322263;28;20614;-75
2022/10/20 09:51:43;;;;;;;16.85;9.45;;;;;14.70;100552.00;;;;10344952;28;20257;-75
2022/10/20 09:57:06;;;;;;;19.63;11.25;;;;;14.80;100551.00;;;;10325973;28;20243;-75
2022/10/20 10:02:14;;;;;;;16.85;10.52;;;;;15.00;100542.00;;;;10347097;28;20302;-75
2022/10/20 10:07:24;;;;;;;17.52;10.57;;;;;15.20;100541.00;;;;10342725;28;20710;-75
2022/10/20 10:12:45;;;;;;;17.73;10.32;;;;;15.60;100525.00;;;;10282068;28;20277;-75
2022/10/20 10:17:47;;;;;;;21.10;11.43;;;;;15.80;100513.00;;;;10298896;28;20247;-75
2022/10/20 10:23:21;;;;;;;14.98;10.70;;;;;16.10;100510.00;;;;10330551;28;20530;-75
2022/10/20 10:28:40;;;;;;;15.15;10.70;;;;;17.00;100498.00;;;;10320438;28;20257;-75
2022/10/20 10:33:42;;;;;;;13.48;9.68;;;;;17.70;100508.00;;;;10313158;28;20215;-75
2022/10/20 10:38:43;;;;;;;16.60;9.55;;;;;17.90;100514.00;;;;10317534;28;20203;-75
2022/10/20 10:44:14;;;;;;;14.00;9.43;;;;;17.70;100531.00;;;;10339191;28;20262;-75
2022/10/20 10:49:32;;;;;;;14.32;8.73;;;;;17.50;100548.00;;;;10326903;28;20646;-75
2022/10/20 10:54:55;;;;;;;12.27;7.68;;;;;17.90;100555.00;;;;10308830;28;20226;-75
2022/10/20 11:00:00;;;;;;;12.95;7.88;;;;;17.90;100564.00;;;;10301359;28;20222;-75
2022/10/20 11:05:28;;;;;;;11.65;7.95;;;;;18.10;100561.00;;;;10337910;28;20227;-76
2022/10/20 11:10:45;;;;;;;10.20;7.68;;;;;18.40;100547.00;;;;10310796;28;20285;-76
2022/10/20 11:15:46;;;;;;;13.23;8.27;;;;;19.10;100543.00;;;;10327132;28;20322;-76
2022/10/20 11:21:29;;;;;;;18.40;7.93;;;;;19.60;100537.00;;;;10313665;28;20231;-76
2022/10/20 11:26:39;;;;;;;12.15;7.35;;;;;19.60;100532.00;;;;10320202;28;20195;-76
2022/10/20 11:32:20;;;;;;;8.80;6.75;;;;;20.10;100522.00;;;;10331169;28;20654;-76
2022/10/20 11:37:31;;;;;;;8.02;6.20;;;;;21.40;100523.00;;;;10341325;28;21795;-77
2022/10/20 11:42:45;;;;;;;10.20;5.50;;;;;21.40;100529.00;;;;10303587;28;20258;-77
2022/10/20 11:47:48;;;;;;;11.73;6.18;;;;;21.20;100521.00;;;;10309643;28;20245;-77
2022/10/20 11:53:14;;;;;;;11.93;5.50;;;;;21.10;100520.00;;;;10320602;28;20654;-77
2022/10/20 11:58:28;;;;;;;8.50;4.95;;;;;21.50;100512.00;;;;10317715;28;20219;-77
2022/10/20 12:03:44;;;;;;;8.45;4.82;;;;;21.60;100503.00;;;;10346067;28;20262;-77
2022/10/20 12:09:04;;;;;;;8.52;4.60;;;;;20.80;100500.00;;;;10290662;28;20200;-77
2022/10/20 12:14:15;;;;;;;9.18;5.18;;;;;20.90;100489.00;;;;10339006;28;20830;-77
2022/10/20 12:19:21;;;;;;;8.90;5.57;;;;;20.80;100468.00;;;;10320174;28;20211;-77
2022/10/20 12:24:38;;;;;;;10.60;4.20;;;;;21.10;100472.00;;;;10346612;28;20620;-77
2022/10/20 12:29:42;;;;;;;10.52;5.05;;;;;21.90;100471.00;;;;10321370;28;20195;-77
2022/10/20 12:34:43;;;;;;;9.20;4.15;;;;;22.30;100475.00;;;;10345984;28;20859;-78
2022/10/20 12:39:46;;;;;;;8.43;4.18;;;;;22.40;100462.00;;;;10324263;28;20199;-78
2022/10/20 12:44:48;;;;;;;6.60;3.70;;;;;22.70;100475.00;;;;10373146;28;20204;-77
2022/10/20 12:49:55;;;;;;;4.00;3.08;;;;;22.30;100471.00;;;;10320060;28;20211;-78
2022/10/20 12:55:04;;;;;;;6.10;2.95;;;;;22.40;100462.00;;;;10357606;28;20216;-77
2022/10/20 13:00:26;;;;;;;8.30;3.28;;;;;22.00;100442.00;;;;10357819;28;20212;-77
2022/10/20 13:05:47;;;;;;;4.10;2.90;;;;;21.90;100441.00;;;;10361782;28;20309;-78
2022/10/20 13:10:49;;;;;;;4.35;2.50;;;;;21.70;100450.00;;;;10324581;28;20208;-78
2022/10/20 13:15:54;;;;;;;8.57;2.33;;;;;21.50;100440.00;;;;10361691;28;20223;-78
2022/10/20 13:21:00;;;;;;;2.88;2.33;;;;;21.50;100438.00;;;;10364928;28;20210;-78
2022/10/20 13:26:36;;;;;;;3.30;1.98;;;;;21.10;100455.00;;;;10353483;28;20831;-78
2022/10/20 13:31:54;;;;;;;7.35;2.40;;;;;20.60;100450.00;;;;10346605;28;20220;-78
2022/10/20 13:37:08;;;;;;;3.90;1.92;;;;;20.80;100437.00;;;;10338777;28;20601;-77
2022/10/20 13:42:31;;;;;;;5.63;2.10;;;;;21.20;100433.00;;;;10346463;28;20276;-79
2022/10/20 13:47:50;;;;;;;5.07;2.40;;;;;20.90;100426.00;;;;10325134;28;20195;-78
2022/10/20 13:52:56;;;;;;;5.43;2.10;;;;;20.70;100424.00;;;;10292494;28;20203;-77
2022/10/20 13:58:15;;;;;;;4.57;2.03;;;;;20.80;100428.00;;;;10310553;28;20216;-78
2022/10/20 14:03:17;;;;;;;4.00;2.10;;;;;20.70;100424.00;;;;10329386;28;20224;-77
2022/10/20 14:08:18;;;;;;;4.05;2.33;;;;;20.60;100421.00;;;;10340575;28;20227;-77
2022/10/20 14:13:33;;;;;;;5.50;2.03;;;;;20.60;100415.00;;;;10340882;28;20227;-77
2022/10/20 14:18:38;;;;;;;2.20;1.88;;;;;20.80;100413.00;;;;10342416;28;20203;-77
2022/10/20 14:23:41;;;;;;;3.00;2.03;;;;;20.60;100412.00;;;;10362858;28;20203;-78
2022/10/20 14:28:43;;;;;;;4.78;2.05;;;;;20.30;100419.00;;;;10334873;28;20656;-77
2022/10/20 14:33:46;;;;;;;3.35;2.10;;;;;20.50;100411.00;;;;10316068;28;20871;-78
2022/10/20 14:38:50;;;;;;;4.32;2.03;;;;;20.30;100407.00;;;;10331180;28;20218;-78
2022/10/20 14:44:04;;;;;;;4.35;2.05;;;;;20.40;100397.00;;;;10337017;28;20201;-78
2022/10/20 14:49:16;;;;;;;7.70;1.90;;;;;20.70;100400.00;;;;10351305;28;20192;-78
2022/10/20 14:54:34;;;;;;;5.40;2.55;;;;;20.40;100389.00;;;;10349434;28;20354;-78
2022/10/20 15:00:02;;;;;;;2.88;2.20;;;;;20.50;100396.00;;;;10332909;28;20859;-77
2022/10/20 15:05:25;;;;;;;4.22;2.35;;;;;20.30;100394.00;;;;10348155;28;20765;-77
2022/10/20 15:10:29;;;;;;;7.75;2.58;;;;;20.30;100389.00;;;;10337117;28;20206;-77
2022/10/20 15:15:36;;;;;;;3.97;2.47;;;;;20.30;100385.00;;;;10352051;28;20212;-78
2022/10/20 15:20:42;;;;;;;6.07;2.20;;;;;20.20;100379.00;;;;10346054;28;20733;-78
2022/10/20 15:25:51;;;;;;;9.27;2.55;;;;;20.30;100372.00;;;;10332921;28;20211;-78
2022/10/20 15:30:52;;;;;;;5.03;2.75;;;;;20.30;100365.00;;;;10338475;28;20244;-78
2022/10/20 15:35:54;;;;;;;2.22;2.03;;;;;20.40;100365.00;;;;10334251;28;20321;-78
2022/10/20 15:40:55;;;;;;;7.60;2.45;;;;;20.50;100363.00;;;;10314850;28;20203;-77
2022/10/20 15:45:56;;;;;;;5.63;2.30;;;;;20.30;100358.00;;;;10325691;28;20904;-77
2022/10/20 15:51:00;;;;;;;6.32;2.42;;;;;20.10;100353.00;;;;10316450;28;20203;-77
2022/10/20 15:56:02;;;;;;;4.13;2.63;;;;;19.90;100352.00;;;;10311582;28;20243;-78
2022/10/20 16:01:06;;;;;;;6.53;2.58;;;;;19.70;100350.00;;;;10339331;28;20254;-78
2022/10/20 16:06:12;;;;;;;29.73;4.78;;;;;19.60;100343.00;;;;10362609;28;20223;-78
2022/10/20 16:11:15;;;;;;;4.63;2.80;;;;;19.40;100334.00;;;;10323971;28;20278;-78
2022/10/20 16:16:18;;;;;;;5.45;2.85;;;;;19.30;100342.00;;;;10337748;28;20235;-77
2022/10/20 16:21:19;;;;;;;5.65;2.78;;;;;19.10;100330.00;;;;10357059;28;20224;-77
2022/10/20 16:26:20;;;;;;;10.15;3.20;;;;;18.80;100315.00;;;;10339186;28;20207;-78
2022/10/20 16:31:22;;;;;;;7.10;2.95;;;;;18.60;100320.00;;;;10316315;28;20204;-78
2022/10/20 16:36:23;;;;;;;6.05;3.15;;;;;18.50;100320.00;;;;10358006;28;20311;-77
2022/10/20 16:41:24;;;;;;;6.10;2.78;;;;;18.40;100312.00;;;;10317275;28;20224;-77
2022/10/20 16:46:25;;;;;;;4.07;2.97;;;;;18.30;100319.00;;;;10328094;28;20208;-77
2022/10/20 16:51:26;;;;;;;11.35;3.13;;;;;18.30;100330.00;;;;10352127;28;20202;-77
2022/10/20 16:56:28;;;;;;;8.88;2.88;;;;;18.20;100316.00;;;;10338047;28;20465;-77
2022/10/20 17:01:30;;;;;;;6.07;2.50;;;;;18.20;100316.00;;;;10319936;28;20218;-77
2022/10/20 17:06:31;;;;;;;6.72;3.33;;;;;18.10;100306.00;;;;10352489;28;20301;-77
2022/10/20 17:11:32;;;;;;;9.00;2.85;;;;;18.10;100293.00;;;;10309946;28;20255;-77
2022/10/20 17:16:36;;;;;;;6.28;3.88;;;;;18.00;100289.00;;;;10330465;28;20216;-77
2022/10/20 17:21:38;;;;;;;5.45;3.72;;;;;18.00;100291.00;;;;10316966;28;20200;-77
2022/10/20 17:26:40;;;;;;;7.40;3.20;;;;;17.90;100295.00;;;;10355165;28;20199;-76
2022/10/20 17:31:41;;;;;;;5.32;2.70;;;;;17.80;100292.00;;;;10331410;28;20204;-77
2022/10/20 17:36:42;;;;;;;5.63;2.88;;;;;17.80;100290.00;;;;10334253;28;20215;-77
2022/10/20 17:41:45;;;;;;;7.43;3.58;;;;;17.80;100290.00;;;;10341335;28;20206;-77
2022/10/20 17:46:46;;;;;;;5.72;2.83;;;;;17.80;100293.00;;;;10335598;28;20625;-77
2022/10/20 17:51:47;;;;;;;4.22;2.92;;;;;17.90;100295.00;;;;10340087;28;20199;-77
2022/10/20 17:56:51;;;;;;;6.90;2.63;;;;;17.90;100295.00;;;;10333219;28;20741;-77
2022/10/20 18:01:52;;;;;;;7.00;3.45;;;;;17.90;100304.00;;;;10346842;28;20196;-77
2022/10/20 18:06:53;;;;;;;9.32;3.70;;;;;17.90;100306.00;;;;10333428;28;20327;-77
2022/10/20 18:11:54;;;;;;;8.02;4.80;;;;;17.90;100321.00;;;;10330992;28;20204;-77
2022/10/20 18:16:55;;;;;;;5.43;3.30;;;;;17.80;100318.00;;;;10340459;28;20219;-77
2022/10/20 18:21:57;;;;;;;6.03;3.55;;;;;17.70;100316.00;;;;10368706;28;20825;-77
2022/10/20 18:26:58;;;;;;;5.82;3.70;;;;;17.70;100320.00;;;;10358719;28;20272;-77
2022/10/20 18:31:59;;;;;;;9.15;3.83;;;;;17.60;100319.00;;;;10347651;28;20211;-77
2022/10/20 18:37:02;;;;;;;9.20;5.13;;;;;17.50;100320.00;;;;10328006;28;20223;-77
2022/10/20 18:42:03;;;;;;;9.52;3.83;;;;;17.40;100318.00;;;;10316407;28;20692;-77
2022/10/20 18:47:04;;;;;;;7.75;3.53;;;;;17.30;100316.00;;;;10326004;28;20642;-77
2022/10/20 18:52:05;;;;;;;8.30;3.83;;;;;17.20;100306.00;;;;10292212;28;20348;-77
2022/10/20 18:57:07;;;;;;;6.47;3.80;;;;;17.20;100305.00;;;;10352753;28;20306;-77
2022/10/20 19:02:09;;;;;;;8.93;4.40;;;;;17.10;100303.00;;;;10338989;28;20270;-77
2022/10/20 19:07:10;;;;;;;11.23;4.20;;;;;17.00;100289.00;;;;10293012;28;20226;-77
2022/10/20 19:12:11;;;;;;;9.73;5.00;;;;;17.00;100273.00;;;;10337678;28;20191;-77
2022/10/20 19:17:12;;;;;;;8.60;4.97;;;;;17.00;100261.00;;;;10339748;28;20286;-77
2022/10/20 19:22:13;;;;;;;7.22;4.70;;;;;17.00;100247.00;;;;10349068;28;20191;-77
2022/10/20 19:27:14;;;;;;;7.90;4.35;;;;;16.90;100236.00;;;;10330361;28;20207;-77
2022/10/20 19:32:27;;;;;;;9.30;5.65;;;;;16.80;100234.00;;;;10299065;28;20202;-77
2022/10/20 19:37:29;;;;;;;16.33;5.65;;;;;16.80;100224.00;;;;10296439;28;20811;-77
2022/10/20 19:42:30;;;;;;;8.98;4.97;;;;;16.80;100232.00;;;;10357073;28;20206;-77
2022/10/20 19:47:31;;;;;;;9.73;5.10;;;;;16.80;100223.00;;;;10307704;28;20203;-77
2022/10/20 19:52:33;;;;;;;8.90;5.03;;;;;16.80;100218.00;;;;10297672;28;20202;-77
2022/10/20 19:57:35;;;;;;;10.43;5.68;;;;;16.80;100218.00;;;;10326553;28;20218;-77
2022/10/20 20:02:36;;;;;;;8.38;5.32;;;;;16.80;100217.00;;;;10320223;28;20191;-77
2022/10/20 20:07:39;;;;;;;7.55;5.15;;;;;16.90;100218.00;;;;10303977;28;20225;-77
2022/10/20 20:12:40;;;;;;;11.05;5.80;;;;;16.90;100228.00;;;;10315089;28;20197;-77
2022/10/20 20:17:41;;;;;;;8.52;5.00;;;;;17.00;100214.00;;;;10320844;28;20299;-77
2022/10/20 20:22:43;;;;;;;9.23;5.55;;;;;17.00;100200.00;;;;10348949;28;20244;-77
2022/10/20 20:27:44;;;;;;;15.50;6.43;;;;;17.10;100212.00;;;;10331883;28;20241;-77
2022/10/20 20:32:45;;;;;;;11.13;5.88;;;;;17.10;100226.00;;;;10352450;28;20202;-77
2022/10/20 20:37:49;;;;;;;10.77;5.05;;;;;17.10;100228.00;;;;10307312;28;20663;-77
2022/10/20 20:42:50;;;;;;;10.77;5.40;;;;;17.00;100238.00;;;;10325079;28;20210;-77
2022/10/20 20:47:52;;;;;;;9.95;5.25;;;;;17.00;100232.00;;;;10325742;28;20675;-77
2022/10/20 20:52:53;;;;;;;9.55;6.00;;;;;16.90;100239.00;;;;10327347;28;20203;-77
2022/10/20 20:57:54;;;;;;;6.85;5.28;;;;;17.00;100233.00;;;;10322890;28;20212;-77
2022/10/20 21:02:55;;;;;;;16.73;5.95;;;;;17.00;100237.00;;;;10329120;28;20208;-77
2022/10/20 21:07:56;;;;;;;8.27;4.90;;;;;17.00;100224.00;;;;10359887;28;20739;-77
2022/10/20 21:12:57;;;;;;;11.13;6.05;;;;;17.10;100233.00;;;;10311039;28;20206;-77
2022/10/20 21:17:58;;;;;;;11.35;6.05;;;;;17.10;100222.00;;;;10292954;28;20231;-77
2022/10/20 21:23:00;;;;;;;9.90;5.97;;;;;17.10;100221.00;;;;10339437;28;20281;-77
2022/10/20 21:28:01;;;;;;;11.45;5.43;;;;;17.20;100211.00;;;;10302576;28;20191;-77
2022/10/20 21:33:02;;;;;;;11.85;6.47;;;;;17.20;100210.00;;;;10352103;28;20281;-77
2022/10/20 21:38:03;;;;;;;8.85;5.53;;;;;17.20;100211.00;;;;10341655;28;20227;-77
2022/10/20 21:43:07;;;;;;;12.85;5.93;;;;;17.20;100204.00;;;;10331622;28;20199;-77
2022/10/20 21:48:08;;;;;;;11.13;5.80;;;;;17.20;100201.00;;;;10334179;28;20266;-77
2022/10/20 21:53:10;;;;;;;10.82;5.68;;;;;17.10;100206.00;;;;10333621;28;20338;-77
2022/10/20 21:58:11;;;;;;;9.25;6.35;;;;;17.10;100215.00;;;;10338831;28;20784;-77
2022/10/20 22:03:12;;;;;;;10.63;6.07;;;;;17.10;100230.00;;;;10309852;28;20207;-77
2022/10/20 22:08:13;;;;;;;11.77;5.65;;;;;17.20;100225.00;;;;10336202;28;20328;-77
2022/10/20 22:13:14;;;;;;;14.27;5.53;;;;;17.20;100225.00;;;;10322149;28;20207;-77
2022/10/20 22:18:15;;;;;;;11.35;4.95;;;;;17.10;100245.00;;;;10323335;28;20273;-77
2022/10/20 22:23:16;;;;;;;10.00;5.75;;;;;17.10;100239.00;;;;10332484;28;20203;-77
2022/10/20 22:28:18;;;;;;;12.13;5.13;;;;;17.10;100228.00;;;;10301953;28;20200;-77
2022/10/20 22:33:19;;;;;;;6.57;4.60;;;;;17.00;100226.00;;;;10324286;28;20203;-77
2022/10/20 22:38:20;;;;;;;11.07;4.75;;;;;16.90;100228.00;;;;10332171;28;20207;-77
2022/10/20 22:43:21;;;;;;;8.75;4.47;;;;;16.90;100221.00;;;;10312397;28;20199;-77
2022/10/20 22:48:23;;;;;;;8.73;4.30;;;;;16.90;100229.00;;;;10320800;28;20203;-77
2022/10/20 22:53:24;;;;;;;5.60;3.55;;;;;16.90;100228.00;;;;10334463;28;20200;-77
2022/10/20 22:58:26;;;;;;;9.63;4.53;;;;;16.90;100239.00;;;;10309282;28;20223;-77
2022/10/20 23:03:27;;;;;;;5.78;3.70;;;;;16.80;100236.00;;;;10300828;28;20207;-77
2022/10/20 23:08:28;;;;;;;6.85;3.83;;;;;16.80;100227.00;;;;10312363;28;20204;-77
2022/10/20 23:13:33;;;;;;;8.63;3.47;;;;;16.80;100236.00;;;;10316534;28;20199;-77
2022/10/20 23:18:35;;;;;;;9.40;3.35;;;;;16.70;100241.00;;;;10312233;28;20272;-77
2022/10/20 23:23:36;;;;;;;4.22;3.08;;;;;16.60;100241.00;;;;10328253;28;20200;-77
2022/10/20 23:28:38;;;;;;;5.45;2.55;;;;;16.40;100228.00;;;;10305003;28;20426;-77
2022/10/20 23:33:41;;;;;;;4.85;2.60;;;;;16.20;100231.00;;;;10304877;28;20559;-77
2022/10/20 23:38:43;;;;;;;4.55;3.13;;;;;16.10;100231.00;;;;10316881;28;20223;-77
2022/10/20 23:43:44;;;;;;;4.80;2.80;;;;;16.00;100226.00;;;;10332449;28;20192;-76
2022/10/20 23:48:45;;;;;;;3.47;2.70;;;;;15.90;100229.00;;;;10289074;28;20203;-77
2022/10/20 23:53:46;;;;;;;6.30;2.20;;;;;15.80;100225.00;;;;10349972;28;20214;-77
2022/10/20 23:58:47;;;;;;;4.97;2.22;;;;;15.80;100226.00;;;;10314875;28;20250;-77
